Latest Weather Observations for Shark Bay Airport

IDW60801

Issued at 8:05 am WST Tuesday 29 July 2014 (issued every 30 minutes, with the page automatically refreshed every 10 minutes)

About weather observations | Map of weather stations | Latest weather observations for WA | Other Formats
Station Details ID: 006105 Name: SHARK BAY AIRPORT Lat: -25.89 Lon: 113.58 Height: 33.8 m
Data from the previous 72 hours. | See also: Recent months for locations in Western Australia
Date/Time
WST
Temp
°C
App
Temp
°C
Dew
Point
Rel
Hum
%
Delta-T
°C
Wind Press
QNH
hPa
Press
MSL
hPa
Rain
since 9 am
mm
Dir
 
Spd
km/h
Gust
km/h
Spd
kts
Gust
kts
29/08:00am 13.8 11.4 10.2 79 1.9 SSE 13 20 7 11 1024.0 1023.9 0.0
29/07:30am 12.1 9.5 9.5 84 1.3 SSE 13 17 7 9 1023.7 - 0.0
29/07:00am 11.8 8.8 9.4 85 1.2 SSE 15 20 8 11 1023.2 1023.1 0.0
29/06:30am 11.8 8.5 9.5 86 1.2 SSE 17 26 9 14 1022.5 - 0.0
29/06:00am 11.5 8.1 9.2 86 1.1 S 17 20 9 11 1022.5 1022.5 0.0
29/05:30am 11.6 8.5 9.0 84 1.3 SSE 15 19 8 10 1022.4 - 0.0
29/05:00am 12.6 9.6 9.4 81 1.6 SE 15 20 8 11 1022.4 1022.4 0.0
29/04:30am 12.8 9.5 9.4 80 1.7 SE 17 20 9 11 1022.4 - 0.0
29/04:00am 12.9 9.6 9.4 79 1.8 SSE 17 22 9 12 1022.4 1022.4 0.0
29/03:30am 13.5 9.6 9.4 76 2.1 SSE 20 28 11 15 1022.4 - 0.0
29/03:00am 13.4 9.6 9.1 75 2.2 SSE 19 28 10 15 1022.5 1022.5 0.0
29/02:30am 13.5 9.8 9.4 76 2.1 SSE 19 24 10 13 1022.6 - 0.0
29/02:00am 13.0 10.0 9.4 79 1.8 SE 15 20 8 11 1023.1 1023.0 0.0
29/01:30am 13.2 10.3 9.6 79 1.8 SSE 15 19 8 10 1023.2 - 0.0
29/01:00am 13.9 10.7 10.1 78 2.0 SE 17 20 9 11 1023.3 1023.2 0.0
29/12:30am 14.0 11.0 10.6 80 1.8 SSE 17 24 9 13 1023.5 - 0.0
29/12:00am 13.9 10.9 10.5 80 1.8 SSE 17 22 9 12 1023.7 1023.6 0.0
 
Date/Time
WST
Temp
°C
App
Temp
°C
Dew
Point
Rel
Hum
%
Delta-T
°C
Wind Press
QNH
hPa
Press
MSL
hPa
Rain
since 9 am
mm
Dir
 
Spd
km/h
Gust
km/h
Spd
kts
Gust
kts
28/11:30pm 13.8 11.2 10.6 81 1.7 SSE 15 19 8 10 1023.7 - 0.0
28/11:00pm 14.0 11.5 11.0 82 1.6 SSE 15 20 8 11 1023.9 1023.8 0.0
28/10:30pm 14.2 11.7 11.2 82 1.6 S 15 20 8 11 1023.9 - 0.0
28/10:00pm 13.8 11.7 11.0 83 1.5 SSE 13 15 7 8 1023.9 1023.8 0.0
28/09:30pm 14.5 12.3 10.9 79 1.9 S 13 17 7 9 1023.8 - 0.0
28/09:00pm 15.1 12.6 10.9 76 2.2 S 15 19 8 10 1023.7 1023.6 0.0
28/08:30pm 15.2 13.0 10.8 75 2.3 S 13 17 7 9 1023.4 - 0.0
28/08:00pm 15.5 12.9 10.7 73 2.5 S 15 19 8 10 1023.4 1023.3 0.0
28/07:30pm 15.9 13.2 10.4 70 2.9 S 15 19 8 10 1023.2 - 0.0
28/07:00pm 16.2 13.9 10.3 68 3.1 S 13 17 7 9 1023.0 1022.9 0.0
28/06:30pm 17.2 14.0 9.9 62 3.9 S 17 22 9 12 1022.6 - 0.0
28/06:00pm 18.4 15.1 9.5 56 4.7 S 17 24 9 13 1022.5 1022.5 0.0
28/05:30pm 19.8 15.6 7.5 45 6.3 S 19 26 10 14 1022.2 - 0.0
28/05:00pm 20.9 16.5 6.4 39 7.3 S 19 30 10 16 1022.0 1022.0 0.0
28/04:30pm 22.0 17.4 6.7 37 7.8 S 20 26 11 14 1021.9 - 0.0
28/04:00pm 22.3 17.5 5.7 34 8.3 S 20 30 11 16 1021.9 1021.9 0.0
28/03:30pm 22.2 17.7 6.8 37 7.9 S 20 28 11 15 1021.9 - 0.0
28/03:00pm 22.7 18.5 5.6 33 8.6 SSE 17 26 9 14 1022.1 1022.1 0.0
28/02:30pm 22.5 17.7 5.4 33 8.6 SSE 20 28 11 15 1022.2 - 0.0
28/02:00pm 22.2 17.7 6.0 35 8.2 SE 19 26 10 14 1022.5 1022.5 0.0
28/01:30pm 22.5 18.4 6.3 35 8.2 SSE 17 26 9 14 1022.9 - 0.0
28/01:00pm 21.8 16.9 5.3 34 8.2 SE 20 26 11 14 1023.4 1023.3 0.0
28/12:30pm 21.9 17.4 7.0 38 7.7 SE 20 28 11 15 1023.7 - 0.0
28/12:00pm 20.9 16.3 8.2 44 6.6 SE 22 30 12 16 1024.0 1023.9 0.0
28/11:30am 20.5 15.4 7.8 44 6.6 SE 24 33 13 18 1024.5 - 0.0
28/11:00am 19.7 15.0 7.8 46 6.1 SE 22 30 12 16 1025.0 1024.9 0.0
28/10:30am 19.4 14.4 8.1 48 5.8 ESE 24 32 13 17 1025.3 - 0.0
28/10:00am 19.4 14.9 8.7 50 5.6 ESE 22 30 12 16 1025.5 1025.4 0.0
28/09:30am 18.4 14.0 8.9 54 5.0 ESE 22 30 12 16 1025.5 - 0.0
28/09:00am 17.7 13.9 9.8 60 4.1 ESE 20 28 11 15 1025.5 1025.4 0.2
28/08:30am 16.3 13.0 9.7 65 3.4 SE 17 22 9 12 1025.2 - 0.2
28/08:00am 15.0 12.1 9.8 71 2.7 SE 15 20 8 11 1024.9 1024.8 0.2
28/07:30am 13.1 10.4 8.8 75 2.2 SE 13 15 7 8 1024.6 - 0.2
28/07:00am 13.4 10.6 8.7 73 2.3 SE 13 17 7 9 1024.2 1024.1 0.2
28/06:30am 14.1 11.0 8.9 71 2.6 SE 15 20 8 11 1023.9 - 0.2
28/06:00am 14.3 10.8 8.7 69 2.8 SE 17 22 9 12 1023.8 1023.7 0.2
28/05:30am 14.3 11.2 8.9 70 2.7 SE 15 20 8 11 1023.7 - 0.2
28/05:00am 14.2 11.6 9.2 72 2.5 SE 13 17 7 9 1023.6 1023.5 0.2
28/04:30am 13.6 10.9 9.1 74 2.3 SE 13 19 7 10 1023.4 - 0.2
28/04:00am 13.2 10.5 8.9 75 2.2 SE 13 17 7 9 1023.2 1023.1 0.2
28/03:30am 12.9 10.2 9.0 77 2.0 SE 13 19 7 10 1023.3 - 0.2
28/03:00am 12.6 9.6 9.2 80 1.7 SSE 15 19 8 10 1023.4 1023.3 0.2
28/02:30am 12.4 9.8 9.4 82 1.5 SSE 13 17 7 9 1023.4 - 0.2
28/02:00am 12.6 10.1 9.6 82 1.5 SSE 13 15 7 8 1023.6 1023.5 0.2
28/01:30am 13.0 10.6 10.0 82 1.5 SSE 13 17 7 9 1023.6 - 0.2
28/01:00am 13.4 11.4 10.2 81 1.7 SSE 11 15 6 8 1023.8 1023.7 0.2
28/12:30am 14.0 11.4 10.8 81 1.7 SSE 15 19 8 10 1023.7 - 0.2
28/12:00am 14.0 11.9 11.0 82 1.6 SSE 13 17 7 9 1023.7 1023.6 0.2
 
Date/Time
WST
Temp
°C
App
Temp
°C
Dew
Point
Rel
Hum
%
Delta-T
°C
Wind Press
QNH
hPa
Press
MSL
hPa
Rain
since 9 am
mm
Dir
 
Spd
km/h
Gust
km/h
Spd
kts
Gust
kts
27/11:30pm 13.5 11.4 11.2 86 1.2 SSE 13 17 7 9 1023.7 - 0.2
27/11:00pm 13.3 11.1 10.8 85 1.3 S 13 15 7 8 1023.8 1023.7 0.2
27/10:30pm 13.8 12.4 11.0 83 1.5 S 9 11 5 6 1023.7 - 0.2
27/10:00pm 14.4 12.4 11.6 83 1.5 S 13 17 7 9 1023.6 1023.5 0.2
27/09:30pm 14.9 13.0 11.9 82 1.6 S 13 17 7 9 1023.4 - 0.2
27/09:00pm 15.3 13.1 12.1 81 1.7 S 15 19 8 10 1023.5 1023.4 0.2
27/08:30pm 15.6 13.4 12.2 80 1.9 S 15 19 8 10 1023.4 - 0.2
27/08:00pm 16.1 13.5 11.9 76 2.3 S 17 20 9 11 1023.4 1023.3 0.2
27/07:30pm 16.3 14.0 11.7 74 2.5 S 15 20 8 11 1023.3 - 0.2
27/07:00pm 16.9 14.3 12.0 73 2.7 S 17 22 9 12 1022.9 1022.8 0.2
27/06:30pm 17.5 15.4 12.4 72 2.8 S 15 20 8 11 1022.5 - 0.2
27/06:00pm 18.3 15.9 12.5 69 3.2 S 17 24 9 13 1022.2 1022.2 0.2
27/05:30pm 19.2 17.0 12.2 64 3.9 S 15 20 8 11 1021.9 - 0.2
27/05:00pm 20.2 17.5 11.7 58 4.7 S 17 20 9 11 1021.7 1021.7 0.2
27/04:30pm 20.9 17.8 12.1 57 4.9 SSW 20 26 11 14 1021.5 - 0.2
27/04:00pm 21.2 18.2 12.6 58 4.9 SSW 20 28 11 15 1021.4 1021.4 0.2
27/03:30pm 21.7 18.7 12.5 56 5.2 SSW 20 28 11 15 1021.4 - 0.2
27/03:00pm 21.6 19.7 13.0 58 4.9 S 15 20 8 11 1021.3 1021.3 0.2
27/02:30pm 20.9 19.4 13.1 61 4.5 SSE 13 20 7 11 1021.3 - 0.2
27/02:00pm 21.0 19.3 13.7 63 4.2 SSE 15 20 8 11 1021.3 1021.3 0.2
27/01:30pm 20.9 18.4 13.6 63 4.2 ESE 19 24 10 13 1021.4 - 0.2
27/01:00pm 20.4 17.8 13.1 63 4.1 ESE 19 30 10 16 1021.7 1021.7 0.2
27/12:30pm 20.9 18.3 13.1 61 4.5 ESE 19 28 10 15 1022.3 - 0.2
27/12:00pm 19.6 16.4 13.1 66 3.7 SE 22 32 12 17 1022.9 1022.8 0.2
27/11:30am 19.2 15.6 12.9 67 3.6 SE 24 32 13 17 1023.4 - 0.2
27/11:00am 19.3 17.1 14.8 75 2.6 SE 20 28 11 15 1023.9 1023.8 0.2
27/10:30am 18.5 16.7 15.4 82 1.8 SE 19 26 10 14 1024.1 - 0.2
27/10:00am 17.2 14.7 15.2 88 1.2 SE 22 30 12 16 1024.1 1024.0 0.2
27/09:30am 16.6 14.6 15.0 90 0.9 SE 19 30 10 16 1024.1 - 0.0
27/09:00am 16.8 15.2 15.0 89 1.0 SSE 17 22 9 12 1023.9 1023.8 0.0
27/08:30am 16.8 15.5 14.8 88 1.2 SE 15 24 8 13 1023.5 - 0.0
27/08:00am 16.4 15.5 14.9 91 0.9 SE 13 19 7 10 1023.1 1023.0 0.0
27/07:30am 15.5 15.4 14.0 91 0.8 SSE 7 9 4 5 1022.6 - 0.0
27/07:00am 16.1 15.5 14.6 91 0.9 S 11 17 6 9 1022.2 1022.2 0.0
27/06:30am 16.1 15.3 15.0 93 0.6 SSW 13 17 7 9 1021.9 - 0.0
27/06:00am 14.9 14.3 13.6 92 0.7 WSW 9 9 5 5 1021.8 1021.8 0.0
27/05:30am 13.5 13.8 12.1 91 0.8 SE 2 7 1 4 1021.6 - 0.0
27/05:00am 12.1 10.9 10.3 89 0.9 E 7 7 4 4 1021.3 1021.3 0.0
27/04:30am 11.8 10.1 9.9 88 1.0 SSE 9 9 5 5 1021.3 - 0.0
27/04:00am 12.4 11.5 10.6 89 0.9 SSW 6 7 3 4 1021.4 1021.4 0.0
27/03:30am 13.6 13.1 12.2 91 0.8 WNW 6 7 3 4 1021.4 - 0.0
27/03:00am 13.9 13.4 12.5 91 0.8 SW 7 9 4 5 1021.3 1021.3 0.0
27/02:30am 13.1 12.2 11.5 90 0.8 WSW 7 9 4 5 1021.5 - 0.0
27/02:00am 13.0 11.4 11.4 90 0.8 WSW 11 13 6 7 1021.4 1021.4 0.0
27/01:30am 12.9 11.6 11.1 89 0.9 W 9 9 5 5 1021.4 - 0.0
27/01:00am 11.5 10.6 9.2 86 1.1 WSW 4 6 2 3 1021.4 1021.4 0.0
27/12:30am 12.4 11.3 10.1 86 1.2 W 6 7 3 4 1021.6 - 0.0
27/12:00am 13.7 12.1 11.7 88 1.1 W 11 11 6 6 1021.6 1021.6 0.0
 
Date/Time
WST
Temp
°C
App
Temp
°C
Dew
Point
Rel
Hum
%
Delta-T
°C
Wind Press
QNH
hPa
Press
MSL
hPa
Rain
since 9 am
mm
Dir
 
Spd
km/h
Gust
km/h
Spd
kts
Gust
kts
26/11:30pm 13.9 12.8 11.8 87 1.1 W 9 11 5 6 1021.7 - 0.0
26/11:00pm 14.2 13.5 12.1 87 1.1 W 7 9 4 5 1021.8 1021.8 0.0
26/10:30pm 14.1 13.2 11.4 84 1.4 W 7 7 4 4 1022.0 - 0.0
26/10:00pm 14.1 13.2 11.3 83 1.5 WNW 7 9 4 5 1022.0 1022.0 0.0
26/09:30pm 14.4 13.5 11.2 81 1.7 NNW 7 7 4 4 1021.8 - 0.0
26/09:00pm 15.2 15.8 11.8 80 1.8 CALM 0 0 0 0 1021.9 1021.9 0.0
26/08:30pm 15.6 16.2 11.8 78 2.1 CALM 0 0 0 0 1021.7 - 0.0
26/08:00pm 16.4 15.8 12.2 76 2.3 WSW 7 9 4 5 1021.6 1021.6 0.0
26/07:30pm 16.8 16.4 12.5 76 2.4 W 6 7 3 4 1021.4 - 0.0
26/07:00pm 17.1 16.5 11.8 71 2.9 WNW 6 7 3 4 1021.2 1021.2 0.0
26/06:30pm 18.0 16.6 12.2 69 3.2 WNW 11 13 6 7 1020.8 - 0.0
26/06:00pm 19.2 18.3 12.5 65 3.7 WNW 9 11 5 6 1020.5 1020.5 0.0
26/05:30pm 20.8 18.6 12.2 58 4.8 WNW 15 20 8 11 1020.3 - 0.0
26/05:00pm 22.1 18.7 11.2 50 6.0 NW 20 26 11 14 1020.1 1020.1 0.0
26/04:30pm 22.9 19.1 9.7 43 7.2 WNW 20 28 11 15 1020.0 - 0.0
26/04:00pm 23.9 19.9 9.1 39 8.0 WNW 20 28 11 15 1019.8 1019.8 0.0
26/03:30pm 24.1 19.5 8.1 36 8.5 WNW 22 30 12 16 1019.6 - 0.0
26/03:00pm 24.8 19.6 7.4 33 9.1 WNW 24 30 13 16 1019.6 1019.6 0.0
26/02:30pm 24.5 18.8 6.7 32 9.2 WNW 26 32 14 17 1019.8 - 0.0
26/02:00pm 25.0 19.9 7.6 33 9.2 WNW 24 32 13 17 1020.1 1020.1 0.0
26/01:30pm 24.6 20.2 7.3 33 9.1 WNW 20 32 11 17 1020.6 - 0.0
26/01:00pm 24.3 20.2 8.7 37 8.4 WNW 20 32 11 17 1021.0 1021.0 0.0
26/12:30pm 24.0 20.1 9.6 40 7.9 WNW 20 28 11 15 1021.6 - 0.0
26/12:00pm 22.5 18.9 10.0 45 6.8 W 19 28 10 15 1021.9 1021.9 0.0
26/11:30am 22.4 19.1 11.5 50 6.1 W 20 26 11 14 1022.2 - 0.0
26/11:00am 21.9 19.7 12.2 54 5.5 WNW 15 20 8 11 1022.4 1022.4 0.0
26/10:30am 21.1 19.0 12.5 58 4.9 WNW 15 19 8 10 1022.5 - 0.0
26/10:00am 21.2 19.4 12.1 56 5.1 NNW 13 19 7 10 1022.3 1022.3 0.0
26/09:30am 20.8 19.0 12.0 57 4.9 N 13 17 7 9 1022.1 - 0.0
26/09:00am 19.1 17.2 13.1 68 3.4 NNE 15 19 8 10 1021.7 1021.7 0.2
26/08:30am 17.2 16.2 13.3 78 2.2 NE 11 15 6 8 1021.4 - 0.2
26/08:24am 16.3 15.2 13.0 81 1.8 NE 11 15 6 8 1021.3 - 0.2

Other Formats:

Comma delimited format used in spreadsheet applications
http://www.bom.gov.au/fwo/IDW60801/IDW60801.95402.axf

JavaScript Object Notation format (JSON) in row-major order
http://www.bom.gov.au/fwo/IDW60801/IDW60801.95402.json